Terminal Aerodrome Forecast
Issued by NWS

Home | Current Version | Previous Version | Text Only | Print | Product List | Glossary On
Versions: 1 2 3 4 5 6 7 8 9 10 11 12 13 14 15 16 17 18 19 20 21 22 23 24 25 26 27 28 29
000
FTUS46 KPDT 220700 AAA
TAFDLS
TAF AMD
KDLS 220716Z 2207/2306 31010KT P6SM SCT020 BKN025 OVC050
      TEMPO 2208/2212 SCT025 OVC050
     FM221600 31010KT P6SM BKN070
     FM222300 31006KT P6SM BKN120=

USA.gov is the U.S. government's official web portal to all federal, state and local government web resources and services.